createdAt,value
2022-09-20T00:00:18.030Z,0
2022-09-20T00:05:17.982Z,0
2022-09-20T00:10:17.792Z,0
2022-09-20T00:15:18.236Z,0
2022-09-20T00:20:17.826Z,0
2022-09-20T00:25:17.790Z,0
2022-09-20T00:30:18.535Z,0
2022-09-20T00:35:17.977Z,0
2022-09-20T00:40:17.936Z,0
2022-09-20T00:45:18.156Z,0
2022-09-20T00:50:17.909Z,0
2022-09-20T00:55:17.887Z,0
2022-09-20T01:00:18.896Z,0
2022-09-20T01:05:18.010Z,0
2022-09-20T01:10:18.134Z,0
2022-09-20T01:15:17.968Z,0
2022-09-20T01:20:17.885Z,0
2022-09-20T01:25:18.180Z,0
2022-09-20T01:30:18.024Z,0
2022-09-20T01:35:18.209Z,0
2022-09-20T01:40:18.045Z,0
2022-09-20T01:45:18.227Z,0
2022-09-20T01:50:17.924Z,0
2022-09-20T01:55:18.060Z,0
2022-09-20T02:00:18.174Z,0
2022-09-20T02:05:18.185Z,0
2022-09-20T02:10:18.229Z,0
2022-09-20T02:15:18.239Z,0
2022-09-20T02:20:18.345Z,0
2022-09-20T02:25:18.180Z,0
2022-09-20T02:30:18.235Z,0
2022-09-20T02:35:18.309Z,0
2022-09-20T02:40:18.081Z,0
2022-09-20T02:45:18.395Z,0
2022-09-20T02:50:18.080Z,0
2022-09-20T02:55:18.149Z,0
2022-09-20T03:00:19.865Z,0
2022-09-20T03:05:18.113Z,0
2022-09-20T03:10:18.393Z,0
2022-09-20T03:15:16.203Z,0
2022-09-20T03:20:16.410Z,0
2022-09-20T03:25:16.375Z,0
2022-09-20T03:30:16.468Z,0
2022-09-20T03:35:16.194Z,0
2022-09-20T03:40:16.409Z,0
2022-09-20T03:45:16.759Z,0
2022-09-20T03:50:16.350Z,0
2022-09-20T03:55:16.502Z,0
2022-09-20T04:00:17.506Z,0
2022-09-20T04:05:17.361Z,0
2022-09-20T04:10:17.338Z,0
2022-09-20T04:15:17.462Z,0
2022-09-20T04:20:17.958Z,0
2022-09-20T04:25:17.450Z,0
2022-09-20T04:30:17.436Z,0
2022-09-20T04:35:17.472Z,0
2022-09-20T04:40:17.555Z,0
2022-09-20T04:45:17.523Z,0
2022-09-20T04:50:17.558Z,0
2022-09-20T04:55:17.555Z,0
2022-09-20T05:00:18.543Z,0
2022-09-20T05:05:17.283Z,0
2022-09-20T05:10:17.517Z,0
2022-09-20T05:15:17.499Z,0
2022-09-20T05:20:17.427Z,0
2022-09-20T05:25:17.389Z,0
2022-09-20T05:30:17.831Z,0
2022-09-20T05:35:17.569Z,0
2022-09-20T05:40:17.632Z,0
2022-09-20T05:45:17.620Z,0
2022-09-20T05:50:17.651Z,0
2022-09-20T05:55:17.389Z,0
2022-09-20T06:00:17.704Z,0
2022-09-20T06:05:17.524Z,0
2022-09-20T06:10:17.783Z,0
2022-09-20T06:15:17.725Z,0
2022-09-20T06:20:17.679Z,0
2022-09-20T06:25:17.573Z,0
2022-09-20T06:30:17.937Z,0
2022-09-20T06:35:17.519Z,0
2022-09-20T06:40:17.801Z,0
2022-09-20T06:45:18.357Z,0
2022-09-20T06:50:17.802Z,0
2022-09-20T06:55:17.763Z,0
2022-09-20T07:00:19.662Z,0
2022-09-20T07:05:17.612Z,0
2022-09-20T07:10:17.769Z,0
2022-09-20T07:15:17.743Z,0
2022-09-20T07:20:21.558Z,0
2022-09-20T07:25:17.698Z,0
2022-09-20T07:30:18.218Z,0
2022-09-20T07:35:17.659Z,0
2022-09-20T07:40:19.472Z,0
2022-09-20T07:45:17.948Z,0
2022-09-20T07:50:17.690Z,0
2022-09-20T07:55:17.712Z,0
2022-09-20T08:00:18.185Z,0
2022-09-20T08:05:17.763Z,0
2022-09-20T08:10:17.763Z,0
2022-09-20T08:15:17.971Z,0
2022-09-20T08:20:17.818Z,0
2022-09-20T08:25:18.242Z,0
2022-09-20T08:30:17.898Z,0
2022-09-20T08:35:17.906Z,0
2022-09-20T08:40:17.936Z,0
2022-09-20T08:45:53.727Z,0
2022-09-20T08:50:18.075Z,0
2022-09-20T08:55:17.985Z,0
2022-09-20T09:00:19.498Z,0
2022-09-20T09:05:18.473Z,0
2022-09-20T09:10:19.222Z,0
2022-09-20T09:15:18.162Z,0
2022-09-20T09:20:18.027Z,0
2022-09-20T09:25:18.085Z,0
2022-09-20T09:30:18.004Z,0
2022-09-20T09:35:18.377Z,0
2022-09-20T09:40:18.072Z,0
2022-09-20T09:45:18.101Z,0
2022-09-20T09:50:18.125Z,0
2022-09-20T09:55:18.086Z,0
2022-09-20T10:00:21.870Z,0
2022-09-20T10:05:18.173Z,0
2022-09-20T10:10:18.346Z,0
2022-09-20T10:15:18.297Z,0
2022-09-20T10:20:18.026Z,0
2022-09-20T10:25:18.224Z,0
2022-09-20T10:30:18.485Z,0
2022-09-20T10:35:18.051Z,0
2022-09-20T10:40:18.139Z,0
2022-09-20T10:45:43.906Z,0
2022-09-20T10:50:18.170Z,2
2022-09-20T10:55:18.148Z,5
2022-09-20T11:00:19.068Z,6
2022-09-20T11:05:18.055Z,11
2022-09-20T11:10:18.139Z,11
2022-09-20T11:15:18.488Z,16
2022-09-20T11:20:18.312Z,22
2022-09-20T11:25:21.663Z,29
2022-09-20T11:30:16.417Z,38
2022-09-20T11:35:16.273Z,54
2022-09-20T11:40:16.330Z,47
2022-09-20T11:45:16.651Z,67
2022-09-20T11:50:16.238Z,67
2022-09-20T11:55:16.606Z,69
2022-09-20T12:00:16.391Z,84
2022-09-20T12:05:16.344Z,100
2022-09-20T12:10:16.322Z,93
2022-09-20T12:15:16.575Z,94
2022-09-20T12:20:19.276Z,89
2022-09-20T12:25:16.507Z,77
2022-09-20T12:30:16.641Z,63
2022-09-20T12:35:17.532Z,62
2022-09-20T12:40:16.393Z,57
2022-09-20T12:45:16.520Z,64
2022-09-20T12:50:16.348Z,69
2022-09-20T12:55:16.501Z,78
2022-09-20T13:00:18.301Z,87
2022-09-20T13:05:16.796Z,91
2022-09-20T13:10:16.416Z,104
2022-09-20T13:15:16.505Z,120
2022-09-20T13:20:16.398Z,129
2022-09-20T13:25:16.550Z,149
2022-09-20T13:30:16.806Z,161
2022-09-20T13:35:16.631Z,134
2022-09-20T13:40:16.680Z,114
2022-09-20T13:45:16.815Z,87
2022-09-20T13:50:16.651Z,89
2022-09-20T13:55:16.419Z,99
2022-09-20T14:00:16.830Z,96
2022-09-20T14:05:16.652Z,106
2022-09-20T14:10:16.650Z,114
2022-09-20T14:15:16.997Z,130
2022-09-20T14:20:16.653Z,164
2022-09-20T14:25:16.551Z,222
2022-09-20T14:30:16.910Z,200
2022-09-20T14:35:16.737Z,138
2022-09-20T14:40:16.842Z,137
2022-09-20T14:45:16.754Z,132
2022-09-20T14:50:16.737Z,160
2022-09-20T14:55:16.642Z,272
2022-09-20T15:00:17.952Z,210
2022-09-20T15:05:16.594Z,198
2022-09-20T15:10:16.627Z,212
2022-09-20T15:15:16.808Z,221
2022-09-20T15:20:18.675Z,249
2022-09-20T15:25:16.815Z,237
2022-09-20T15:30:17.227Z,210
2022-09-20T15:35:16.675Z,166
2022-09-20T15:40:16.905Z,192
2022-09-20T15:45:16.826Z,201
2022-09-20T15:50:16.887Z,189
2022-09-20T15:55:16.708Z,181
2022-09-20T16:00:17.086Z,197
2022-09-20T16:05:16.964Z,206
2022-09-20T16:10:16.880Z,220
2022-09-20T16:15:16.857Z,238
2022-09-20T16:20:16.782Z,204
2022-09-20T16:25:16.978Z,218
2022-09-20T16:30:17.116Z,217
2022-09-20T16:35:16.864Z,212
2022-09-20T16:40:17.187Z,270
2022-09-20T16:45:17.130Z,460
2022-09-20T16:50:16.845Z,381
2022-09-20T16:55:16.828Z,490
2022-09-20T17:00:18.517Z,594
2022-09-20T17:05:17.029Z,416
2022-09-20T17:10:17.058Z,307
2022-09-20T17:15:17.438Z,266
2022-09-20T17:20:16.984Z,247
2022-09-20T17:25:16.991Z,182
2022-09-20T17:30:17.057Z,199
2022-09-20T17:35:17.139Z,172
2022-09-20T17:40:16.993Z,203
2022-09-20T17:45:17.097Z,222
2022-09-20T17:50:16.978Z,213
2022-09-20T17:55:17.088Z,327
2022-09-20T18:00:18.515Z,357
2022-09-20T18:05:17.192Z,323
2022-09-20T18:10:17.002Z,562
2022-09-20T18:15:17.061Z,286
2022-09-20T18:20:17.207Z,268
2022-09-20T18:25:16.997Z,230
2022-09-20T18:30:17.310Z,259
2022-09-20T18:35:17.070Z,276
2022-09-20T18:40:17.336Z,211
2022-09-20T18:45:17.042Z,209
2022-09-20T18:50:17.273Z,280
2022-09-20T18:55:17.186Z,309
2022-09-20T19:00:18.525Z,254
2022-09-20T19:05:17.324Z,224
2022-09-20T19:10:17.105Z,179
2022-09-20T19:15:17.775Z,168
2022-09-20T19:20:17.182Z,172
2022-09-20T19:25:17.145Z,193
2022-09-20T19:30:17.279Z,135
2022-09-20T19:35:17.132Z,99
2022-09-20T19:40:17.244Z,77
2022-09-20T19:45:17.566Z,75
2022-09-20T19:50:17.160Z,78
2022-09-20T19:55:17.311Z,140
2022-09-20T20:00:17.346Z,150
2022-09-20T20:05:17.384Z,161
2022-09-20T20:10:17.224Z,131
2022-09-20T20:15:17.388Z,122
2022-09-20T20:20:17.581Z,116
2022-09-20T20:25:17.541Z,132
2022-09-20T20:30:17.735Z,131
2022-09-20T20:35:17.410Z,125
2022-09-20T20:40:17.338Z,110
2022-09-20T20:45:17.536Z,108
2022-09-20T20:50:17.324Z,109
2022-09-20T20:55:17.324Z,109
2022-09-20T21:00:18.905Z,120
2022-09-20T21:05:17.413Z,127
2022-09-20T21:10:17.397Z,104
2022-09-20T21:15:17.538Z,60
2022-09-20T21:20:17.437Z,53
2022-09-20T21:25:17.388Z,63
2022-09-20T21:30:17.741Z,88
2022-09-20T21:35:17.386Z,82
2022-09-20T21:40:17.496Z,78
2022-09-20T21:45:17.651Z,67
2022-09-20T21:50:17.478Z,56
2022-09-20T21:55:17.313Z,49
2022-09-20T22:00:17.421Z,42
2022-09-20T22:05:17.592Z,36
2022-09-20T22:10:17.940Z,28
2022-09-20T22:15:17.820Z,23
2022-09-20T22:20:17.805Z,18
2022-09-20T22:25:17.690Z,14
2022-09-20T22:30:17.633Z,11
2022-09-20T22:35:17.457Z,7
2022-09-20T22:40:17.734Z,1
2022-09-20T22:45:17.614Z,0
2022-09-20T22:50:17.618Z,0
2022-09-20T22:55:17.573Z,0
2022-09-20T23:00:18.775Z,0
2022-09-20T23:05:17.630Z,0
2022-09-20T23:10:17.598Z,0
2022-09-20T23:15:18.100Z,0
2022-09-20T23:20:17.590Z,0
2022-09-20T23:25:17.636Z,0
2022-09-20T23:30:17.816Z,0
2022-09-20T23:35:17.742Z,0
2022-09-20T23:40:17.728Z,0
2022-09-20T23:45:17.785Z,0
2022-09-20T23:50:17.821Z,0
2022-09-20T23:55:17.810Z,0
